Карточка аэропорта UWOR

Внимание!
Информация на этой странице в стадии наполнения.
Если вы не увидели какой-то информации, или заметили неточность - пожалуйста сообщите нам!
Спасибо!
Команда RU-STAFF
Название аэропортаОрск
Название аэропорта (англ.)Orsk
Превышение909 ft. (277.1 m.)
Координаты510421°0', 583545°0'
Высота перехода3000
Эшелон переходаQNH >=1013hpa FL040; QNH [977hpa;1012hPa] FL050; QNH < 977 FL 060
Коды ответчика1000
Зона ОрВДСамара РПИ (UWWW)
Данные METARUWOR 050000Z VRB01MPS CAVOK M04/M07 Q1034 R07/CLRD65 NOSIG RMK QFE751/1001
Проноз погоды (TAF)
NOTAMshow/hide NOTAM
AWOS   TABLE

Информация о ВПП

ВПП Длина ВПП (м.) Покрытие Курс ВПП Частота ILS
072700Асфальтобетон66109.55
252700Асфальтобетон246108.1

Диспетчерские позиции


Сценарии

Сценарий
Нет результатов.


Спутниковое изображение